sensor_id;sensor_type;location;lat;lon;timestamp;P1;durP1;ratioP1;P2;durP2;ratioP2
70002;SDS011;57341;51.984;5.088;2022-07-23T00:00:40;15.77;;;3.80;;
70002;SDS011;57341;51.984;5.088;2022-07-23T00:03:07;10.07;;;3.65;;
70002;SDS011;57341;51.984;5.088;2022-07-23T00:05:34;10.52;;;3.50;;
70002;SDS011;57341;51.984;5.088;2022-07-23T00:08:02;12.90;;;3.67;;
70002;SDS011;57341;51.984;5.088;2022-07-23T00:10:31;11.82;;;3.95;;
70002;SDS011;57341;51.984;5.088;2022-07-23T00:12:59;10.35;;;3.78;;
70002;SDS011;57341;51.984;5.088;2022-07-23T00:15:26;11.85;;;3.67;;
70002;SDS011;57341;51.984;5.088;2022-07-23T00:17:53;10.23;;;3.47;;
70002;SDS011;57341;51.984;5.088;2022-07-23T00:20:20;12.38;;;3.90;;
70002;SDS011;57341;51.984;5.088;2022-07-23T00:22:47;8.93;;;3.33;;
70002;SDS011;57341;51.984;5.088;2022-07-23T00:25:18;9.07;;;3.40;;
70002;SDS011;57341;51.984;5.088;2022-07-23T00:27:56;9.35;;;3.63;;
70002;SDS011;57341;51.984;5.088;2022-07-23T00:30:28;10.52;;;3.40;;
70002;SDS011;57341;51.984;5.088;2022-07-23T00:32:59;9.65;;;4.10;;
70002;SDS011;57341;51.984;5.088;2022-07-23T00:35:30;12.73;;;3.97;;
70002;SDS011;57341;51.984;5.088;2022-07-23T00:37:59;10.05;;;4.03;;
70002;SDS011;57341;51.984;5.088;2022-07-23T00:40:27;13.95;;;3.72;;
70002;SDS011;57341;51.984;5.088;2022-07-23T00:42:55;9.60;;;3.42;;
70002;SDS011;57341;51.984;5.088;2022-07-23T00:45:23;10.85;;;3.47;;
70002;SDS011;57341;51.984;5.088;2022-07-23T00:47:50;9.48;;;3.30;;
70002;SDS011;57341;51.984;5.088;2022-07-23T00:50:17;11.82;;;4.40;;
70002;SDS011;57341;51.984;5.088;2022-07-23T00:52:44;11.23;;;3.67;;
70002;SDS011;57341;51.984;5.088;2022-07-23T00:55:12;9.48;;;3.45;;
70002;SDS011;57341;51.984;5.088;2022-07-23T00:57:39;10.15;;;3.42;;
70002;SDS011;57341;51.984;5.088;2022-07-23T01:00:08;11.30;;;3.63;;
70002;SDS011;57341;51.984;5.088;2022-07-23T01:02:37;15.90;;;4.00;;
70002;SDS011;57341;51.984;5.088;2022-07-23T01:05:05;10.73;;;3.70;;
70002;SDS011;57341;51.984;5.088;2022-07-23T01:07:34;10.32;;;3.95;;
70002;SDS011;57341;51.984;5.088;2022-07-23T01:10:01;11.13;;;3.80;;
70002;SDS011;57341;51.984;5.088;2022-07-23T01:12:29;19.08;;;3.70;;
70002;SDS011;57341;51.984;5.088;2022-07-23T01:14:57;11.35;;;3.90;;
70002;SDS011;57341;51.984;5.088;2022-07-23T01:17:26;10.15;;;3.65;;
70002;SDS011;57341;51.984;5.088;2022-07-23T01:19:54;11.70;;;4.30;;
70002;SDS011;57341;51.984;5.088;2022-07-23T01:22:21;11.35;;;3.90;;
70002;SDS011;57341;51.984;5.088;2022-07-23T01:24:48;9.55;;;3.00;;
70002;SDS011;57341;51.984;5.088;2022-07-23T01:27:20;8.48;;;3.20;;
70002;SDS011;57341;51.984;5.088;2022-07-23T01:29:51;8.57;;;3.40;;
70002;SDS011;57341;51.984;5.088;2022-07-23T01:32:19;12.35;;;3.70;;
70002;SDS011;57341;51.984;5.088;2022-07-23T01:34:47;9.70;;;3.35;;
70002;SDS011;57341;51.984;5.088;2022-07-23T01:37:14;10.30;;;3.47;;
70002;SDS011;57341;51.984;5.088;2022-07-23T01:39:42;11.50;;;3.83;;
70002;SDS011;57341;51.984;5.088;2022-07-23T01:42:10;11.90;;;3.97;;
70002;SDS011;57341;51.984;5.088;2022-07-23T01:44:39;13.48;;;4.25;;
70002;SDS011;57341;51.984;5.088;2022-07-23T01:47:09;10.52;;;3.67;;
70002;SDS011;57341;51.984;5.088;2022-07-23T01:49:36;10.30;;;3.95;;
70002;SDS011;57341;51.984;5.088;2022-07-23T01:52:22;11.73;;;3.88;;
70002;SDS011;57341;51.984;5.088;2022-07-23T01:54:50;11.68;;;4.18;;
70002;SDS011;57341;51.984;5.088;2022-07-23T01:57:17;13.82;;;4.40;;
70002;SDS011;57341;51.984;5.088;2022-07-23T01:59:44;11.23;;;4.00;;
70002;SDS011;57341;51.984;5.088;2022-07-23T02:02:11;13.27;;;4.38;;
70002;SDS011;57341;51.984;5.088;2022-07-23T02:04:38;11.82;;;4.18;;
70002;SDS011;57341;51.984;5.088;2022-07-23T02:07:05;12.43;;;4.70;;
70002;SDS011;57341;51.984;5.088;2022-07-23T02:09:32;11.65;;;4.13;;
70002;SDS011;57341;51.984;5.088;2022-07-23T02:12:00;15.75;;;4.45;;
70002;SDS011;57341;51.984;5.088;2022-07-23T02:14:27;14.88;;;4.68;;
70002;SDS011;57341;51.984;5.088;2022-07-23T02:16:54;13.07;;;5.15;;
70002;SDS011;57341;51.984;5.088;2022-07-23T02:19:21;14.07;;;4.57;;
70002;SDS011;57341;51.984;5.088;2022-07-23T02:21:48;12.25;;;5.00;;
70002;SDS011;57341;51.984;5.088;2022-07-23T02:24:18;11.00;;;4.55;;
70002;SDS011;57341;51.984;5.088;2022-07-23T02:26:45;13.35;;;4.93;;
70002;SDS011;57341;51.984;5.088;2022-07-23T02:29:13;12.25;;;5.30;;
70002;SDS011;57341;51.984;5.088;2022-07-23T02:31:40;14.77;;;5.32;;
70002;SDS011;57341;51.984;5.088;2022-07-23T02:34:07;13.27;;;5.60;;
70002;SDS011;57341;51.984;5.088;2022-07-23T02:36:38;13.07;;;5.10;;
70002;SDS011;57341;51.984;5.088;2022-07-23T02:39:07;12.65;;;4.88;;
70002;SDS011;57341;51.984;5.088;2022-07-23T02:41:35;14.43;;;5.18;;
70002;SDS011;57341;51.984;5.088;2022-07-23T02:44:02;15.52;;;5.75;;
70002;SDS011;57341;51.984;5.088;2022-07-23T02:46:30;13.10;;;5.22;;
70002;SDS011;57341;51.984;5.088;2022-07-23T02:48:58;19.02;;;6.05;;
70002;SDS011;57341;51.984;5.088;2022-07-23T02:51:26;16.05;;;6.05;;
70002;SDS011;57341;51.984;5.088;2022-07-23T02:53:57;14.32;;;5.72;;
70002;SDS011;57341;51.984;5.088;2022-07-23T02:56:24;13.95;;;5.30;;
70002;SDS011;57341;51.984;5.088;2022-07-23T02:58:51;15.77;;;6.07;;
70002;SDS011;57341;51.984;5.088;2022-07-23T03:01:19;14.10;;;5.25;;
70002;SDS011;57341;51.984;5.088;2022-07-23T03:03:46;14.35;;;5.18;;
70002;SDS011;57341;51.984;5.088;2022-07-23T03:06:13;16.35;;;5.95;;
70002;SDS011;57341;51.984;5.088;2022-07-23T03:08:40;14.60;;;5.47;;
70002;SDS011;57341;51.984;5.088;2022-07-23T03:11:07;14.10;;;5.40;;
70002;SDS011;57341;51.984;5.088;2022-07-23T03:13:38;17.48;;;5.43;;
70002;SDS011;57341;51.984;5.088;2022-07-23T03:16:06;12.85;;;5.03;;
70002;SDS011;57341;51.984;5.088;2022-07-23T03:18:35;17.30;;;5.35;;
70002;SDS011;57341;51.984;5.088;2022-07-23T03:21:07;15.43;;;5.72;;
70002;SDS011;57341;51.984;5.088;2022-07-23T03:23:36;15.90;;;5.50;;
70002;SDS011;57341;51.984;5.088;2022-07-23T03:26:03;14.63;;;5.45;;
70002;SDS011;57341;51.984;5.088;2022-07-23T03:28:30;13.02;;;5.40;;
70002;SDS011;57341;51.984;5.088;2022-07-23T03:30:57;13.82;;;5.72;;
70002;SDS011;57341;51.984;5.088;2022-07-23T03:33:25;12.98;;;5.47;;
70002;SDS011;57341;51.984;5.088;2022-07-23T03:35:52;14.70;;;5.50;;
70002;SDS011;57341;51.984;5.088;2022-07-23T03:38:25;17.70;;;5.57;;
70002;SDS011;57341;51.984;5.088;2022-07-23T03:40:53;15.45;;;5.88;;
70002;SDS011;57341;51.984;5.088;2022-07-23T03:43:20;13.52;;;5.80;;
70002;SDS011;57341;51.984;5.088;2022-07-23T03:45:47;14.07;;;5.35;;
70002;SDS011;57341;51.984;5.088;2022-07-23T03:48:14;14.55;;;5.63;;
70002;SDS011;57341;51.984;5.088;2022-07-23T03:50:43;12.48;;;5.40;;
70002;SDS011;57341;51.984;5.088;2022-07-23T03:53:10;16.15;;;5.63;;
70002;SDS011;57341;51.984;5.088;2022-07-23T03:55:37;13.65;;;5.22;;
70002;SDS011;57341;51.984;5.088;2022-07-23T03:58:04;13.73;;;5.22;;
70002;SDS011;57341;51.984;5.088;2022-07-23T04:00:31;12.75;;;5.50;;
70002;SDS011;57341;51.984;5.088;2022-07-23T04:02:58;15.23;;;5.85;;
70002;SDS011;57341;51.984;5.088;2022-07-23T04:05:26;13.70;;;5.60;;
70002;SDS011;57341;51.984;5.088;2022-07-23T04:08:01;13.27;;;5.35;;
70002;SDS011;57341;51.984;5.088;2022-07-23T04:10:28;16.50;;;5.88;;
70002;SDS011;57341;51.984;5.088;2022-07-23T04:12:55;12.45;;;4.88;;
70002;SDS011;57341;51.984;5.088;2022-07-23T04:15:22;15.20;;;5.22;;
70002;SDS011;57341;51.984;5.088;2022-07-23T04:17:49;12.82;;;4.93;;
70002;SDS011;57341;51.984;5.088;2022-07-23T04:20:18;15.55;;;5.28;;
70002;SDS011;57341;51.984;5.088;2022-07-23T04:22:53;13.10;;;4.82;;
70002;SDS011;57341;51.984;5.088;2022-07-23T04:25:21;13.23;;;4.65;;
70002;SDS011;57341;51.984;5.088;2022-07-23T04:27:48;14.35;;;4.57;;
70002;SDS011;57341;51.984;5.088;2022-07-23T04:30:16;10.02;;;3.80;;
70002;SDS011;57341;51.984;5.088;2022-07-23T04:32:43;12.15;;;4.28;;
70002;SDS011;57341;51.984;5.088;2022-07-23T04:35:20;9.68;;;3.88;;
70002;SDS011;57341;51.984;5.088;2022-07-23T04:40:17;11.75;;;4.60;;
70002;SDS011;57341;51.984;5.088;2022-07-23T04:42:45;12.48;;;4.95;;
70002;SDS011;57341;51.984;5.088;2022-07-23T04:45:12;14.07;;;4.90;;
70002;SDS011;57341;51.984;5.088;2022-07-23T04:47:40;11.35;;;4.25;;
70002;SDS011;57341;51.984;5.088;2022-07-23T04:50:08;12.80;;;4.60;;
70002;SDS011;57341;51.984;5.088;2022-07-23T04:52:38;12.57;;;4.63;;
70002;SDS011;57341;51.984;5.088;2022-07-23T04:55:06;11.88;;;4.50;;
70002;SDS011;57341;51.984;5.088;2022-07-23T04:57:33;10.10;;;3.97;;
70002;SDS011;57341;51.984;5.088;2022-07-23T05:00:00;10.73;;;4.47;;
70002;SDS011;57341;51.984;5.088;2022-07-23T05:02:28;11.43;;;5.00;;
70002;SDS011;57341;51.984;5.088;2022-07-23T05:04:55;13.10;;;4.75;;
70002;SDS011;57341;51.984;5.088;2022-07-23T05:07:22;12.43;;;4.50;;
70002;SDS011;57341;51.984;5.088;2022-07-23T05:09:49;10.13;;;4.40;;
70002;SDS011;57341;51.984;5.088;2022-07-23T05:12:16;11.25;;;4.45;;
70002;SDS011;57341;51.984;5.088;2022-07-23T05:14:44;11.27;;;4.38;;
70002;SDS011;57341;51.984;5.088;2022-07-23T05:17:11;11.18;;;3.97;;
70002;SDS011;57341;51.984;5.088;2022-07-23T05:19:38;12.80;;;4.25;;
70002;SDS011;57341;51.984;5.088;2022-07-23T05:22:05;10.48;;;4.22;;
70002;SDS011;57341;51.984;5.088;2022-07-23T05:24:31;13.05;;;4.13;;
70002;SDS011;57341;51.984;5.088;2022-07-23T05:26:58;9.90;;;4.00;;
70002;SDS011;57341;51.984;5.088;2022-07-23T05:29:26;10.52;;;4.13;;
70002;SDS011;57341;51.984;5.088;2022-07-23T05:31:54;12.50;;;4.50;;
70002;SDS011;57341;51.984;5.088;2022-07-23T05:34:22;11.20;;;4.40;;
70002;SDS011;57341;51.984;5.088;2022-07-23T05:36:49;10.85;;;4.43;;
70002;SDS011;57341;51.984;5.088;2022-07-23T05:39:16;12.88;;;4.60;;
70002;SDS011;57341;51.984;5.088;2022-07-23T05:41:43;11.75;;;3.85;;
70002;SDS011;57341;51.984;5.088;2022-07-23T05:44:10;10.63;;;3.92;;
70002;SDS011;57341;51.984;5.088;2022-07-23T05:46:39;11.52;;;4.70;;
70002;SDS011;57341;51.984;5.088;2022-07-23T05:49:09;11.27;;;4.90;;
70002;SDS011;57341;51.984;5.088;2022-07-23T05:51:55;10.85;;;5.13;;
70002;SDS011;57341;51.984;5.088;2022-07-23T05:54:36;11.30;;;4.85;;
70002;SDS011;57341;51.984;5.088;2022-07-23T05:57:03;13.88;;;5.20;;
70002;SDS011;57341;51.984;5.088;2022-07-23T05:59:31;10.65;;;4.88;;
70002;SDS011;57341;51.984;5.088;2022-07-23T06:01:58;11.77;;;4.68;;
70002;SDS011;57341;51.984;5.088;2022-07-23T06:04:26;14.63;;;4.88;;
70002;SDS011;57341;51.984;5.088;2022-07-23T06:07:13;9.57;;;3.88;;
70002;SDS011;57341;51.984;5.088;2022-07-23T06:09:41;12.68;;;4.00;;
70002;SDS011;57341;51.984;5.088;2022-07-23T06:12:08;11.68;;;4.38;;
70002;SDS011;57341;51.984;5.088;2022-07-23T06:14:35;8.00;;;3.40;;
70002;SDS011;57341;51.984;5.088;2022-07-23T06:17:02;8.95;;;2.95;;
70002;SDS011;57341;51.984;5.088;2022-07-23T06:19:30;8.82;;;3.38;;
70002;SDS011;57341;51.984;5.088;2022-07-23T06:21:58;8.57;;;2.95;;
70002;SDS011;57341;51.984;5.088;2022-07-23T06:24:26;8.70;;;3.28;;
70002;SDS011;57341;51.984;5.088;2022-07-23T06:26:54;7.97;;;3.10;;
70002;SDS011;57341;51.984;5.088;2022-07-23T06:29:21;12.40;;;3.50;;
70002;SDS011;57341;51.984;5.088;2022-07-23T06:31:47;8.98;;;3.40;;
70002;SDS011;57341;51.984;5.088;2022-07-23T06:34:14;9.32;;;2.95;;
70002;SDS011;57341;51.984;5.088;2022-07-23T06:36:41;8.93;;;3.08;;
70002;SDS011;57341;51.984;5.088;2022-07-23T06:39:09;8.77;;;3.38;;
70002;SDS011;57341;51.984;5.088;2022-07-23T06:41:37;10.05;;;3.40;;
70002;SDS011;57341;51.984;5.088;2022-07-23T06:44:04;7.93;;;3.03;;
70002;SDS011;57341;51.984;5.088;2022-07-23T06:46:34;8.18;;;3.13;;
70002;SDS011;57341;51.984;5.088;2022-07-23T06:49:01;7.88;;;2.90;;
70002;SDS011;57341;51.984;5.088;2022-07-23T06:51:31;9.70;;;3.10;;
70002;SDS011;57341;51.984;5.088;2022-07-23T06:54:00;8.10;;;2.90;;
70002;SDS011;57341;51.984;5.088;2022-07-23T06:56:27;10.35;;;2.85;;
70002;SDS011;57341;51.984;5.088;2022-07-23T06:58:54;8.20;;;2.63;;
70002;SDS011;57341;51.984;5.088;2022-07-23T07:01:21;7.25;;;2.50;;
70002;SDS011;57341;51.984;5.088;2022-07-23T07:03:48;8.70;;;2.88;;
70002;SDS011;57341;51.984;5.088;2022-07-23T07:06:15;9.27;;;2.83;;
70002;SDS011;57341;51.984;5.088;2022-07-23T07:08:42;8.70;;;3.08;;
70002;SDS011;57341;51.984;5.088;2022-07-23T07:11:10;8.38;;;2.67;;
70002;SDS011;57341;51.984;5.088;2022-07-23T07:13:37;7.35;;;2.65;;
70002;SDS011;57341;51.984;5.088;2022-07-23T07:16:04;7.45;;;2.92;;
70002;SDS011;57341;51.984;5.088;2022-07-23T07:18:32;9.05;;;2.85;;
70002;SDS011;57341;51.984;5.088;2022-07-23T07:21:02;8.32;;;3.00;;
70002;SDS011;57341;51.984;5.088;2022-07-23T07:23:29;7.53;;;2.80;;
70002;SDS011;57341;51.984;5.088;2022-07-23T07:25:56;9.50;;;2.70;;
70002;SDS011;57341;51.984;5.088;2022-07-23T07:28:23;7.93;;;2.50;;
70002;SDS011;57341;51.984;5.088;2022-07-23T07:30:50;8.25;;;2.72;;
70002;SDS011;57341;51.984;5.088;2022-07-23T07:33:17;10.10;;;2.70;;
70002;SDS011;57341;51.984;5.088;2022-07-23T07:35:44;8.32;;;2.50;;
70002;SDS011;57341;51.984;5.088;2022-07-23T07:38:11;10.40;;;2.92;;
70002;SDS011;57341;51.984;5.088;2022-07-23T07:40:38;9.43;;;2.78;;
70002;SDS011;57341;51.984;5.088;2022-07-23T07:43:05;6.43;;;2.17;;
70002;SDS011;57341;51.984;5.088;2022-07-23T07:45:32;7.88;;;2.30;;
70002;SDS011;57341;51.984;5.088;2022-07-23T07:47:59;6.53;;;2.35;;
70002;SDS011;57341;51.984;5.088;2022-07-23T07:50:26;8.00;;;2.60;;
70002;SDS011;57341;51.984;5.088;2022-07-23T07:52:54;7.47;;;2.30;;
70002;SDS011;57341;51.984;5.088;2022-07-23T07:55:21;11.13;;;2.50;;
70002;SDS011;57341;51.984;5.088;2022-07-23T07:57:49;9.07;;;2.42;;
70002;SDS011;57341;51.984;5.088;2022-07-23T08:00:16;8.02;;;2.40;;
70002;SDS011;57341;51.984;5.088;2022-07-23T08:02:47;6.80;;;2.30;;
70002;SDS011;57341;51.984;5.088;2022-07-23T08:05:23;7.95;;;2.33;;
70002;SDS011;57341;51.984;5.088;2022-07-23T08:07:54;7.97;;;2.28;;
70002;SDS011;57341;51.984;5.088;2022-07-23T08:10:23;6.82;;;2.13;;
70002;SDS011;57341;51.984;5.088;2022-07-23T08:12:51;8.00;;;2.28;;
70002;SDS011;57341;51.984;5.088;2022-07-23T08:15:26;7.00;;;2.38;;
70002;SDS011;57341;51.984;5.088;2022-07-23T08:17:54;8.45;;;2.33;;
70002;SDS011;57341;51.984;5.088;2022-07-23T08:20:22;7.32;;;2.42;;
70002;SDS011;57341;51.984;5.088;2022-07-23T08:22:54;6.75;;;2.40;;
70002;SDS011;57341;51.984;5.088;2022-07-23T08:25:27;8.30;;;2.60;;
70002;SDS011;57341;51.984;5.088;2022-07-23T08:27:57;7.07;;;2.53;;
70002;SDS011;57341;51.984;5.088;2022-07-23T08:30:25;11.02;;;2.45;;
70002;SDS011;57341;51.984;5.088;2022-07-23T08:35:24;6.63;;;2.22;;
70002;SDS011;57341;51.984;5.088;2022-07-23T08:37:54;9.15;;;2.20;;
70002;SDS011;57341;51.984;5.088;2022-07-23T08:40:21;7.07;;;2.20;;
70002;SDS011;57341;51.984;5.088;2022-07-23T08:42:50;6.82;;;2.30;;
70002;SDS011;57341;51.984;5.088;2022-07-23T08:45:21;9.68;;;2.45;;
70002;SDS011;57341;51.984;5.088;2022-07-23T08:47:54;8.55;;;2.35;;
70002;SDS011;57341;51.984;5.088;2022-07-23T08:50:31;7.75;;;2.20;;
70002;SDS011;57341;51.984;5.088;2022-07-23T08:53:02;7.40;;;2.33;;
70002;SDS011;57341;51.984;5.088;2022-07-23T08:55:32;7.05;;;2.38;;
70002;SDS011;57341;51.984;5.088;2022-07-23T08:58:00;6.50;;;2.00;;
70002;SDS011;57341;51.984;5.088;2022-07-23T09:00:27;6.95;;;2.30;;
70002;SDS011;57341;51.984;5.088;2022-07-23T09:02:54;7.82;;;2.10;;
70002;SDS011;57341;51.984;5.088;2022-07-23T09:05:21;4.70;;;1.83;;
70002;SDS011;57341;51.984;5.088;2022-07-23T09:16:09;6.40;;;2.13;;
70002;SDS011;57341;51.984;5.088;2022-07-23T09:21:07;5.88;;;2.25;;
70002;SDS011;57341;51.984;5.088;2022-07-23T09:28:59;7.68;;;2.25;;
70002;SDS011;57341;51.984;5.088;2022-07-23T09:34:18;5.60;;;1.73;;
70002;SDS011;57341;51.984;5.088;2022-07-23T09:36:50;6.50;;;2.60;;
70002;SDS011;57341;51.984;5.088;2022-07-23T09:39:37;4.57;;;1.40;;
70002;SDS011;57341;51.984;5.088;2022-07-23T09:42:14;3.90;;;1.73;;
70002;SDS011;57341;51.984;5.088;2022-07-23T09:44:44;6.40;;;2.45;;
70002;SDS011;57341;51.984;5.088;2022-07-23T09:47:15;5.60;;;2.20;;
70002;SDS011;57341;51.984;5.088;2022-07-23T09:50:03;3.85;;;1.33;;
70002;SDS011;57341;51.984;5.088;2022-07-23T09:52:44;7.30;;;2.38;;
70002;SDS011;57341;51.984;5.088;2022-07-23T09:55:14;5.07;;;1.30;;
70002;SDS011;57341;51.984;5.088;2022-07-23T09:57:42;3.97;;;1.50;;
70002;SDS011;57341;51.984;5.088;2022-07-23T10:00:17;7.43;;;2.47;;
70002;SDS011;57341;51.984;5.088;2022-07-23T10:02:44;7.97;;;2.10;;
70002;SDS011;57341;51.984;5.088;2022-07-23T10:05:28;6.55;;;1.92;;
70002;SDS011;57341;51.984;5.088;2022-07-23T10:08:15;4.88;;;1.88;;
70002;SDS011;57341;51.984;5.088;2022-07-23T10:11:03;6.80;;;1.95;;
70002;SDS011;57341;51.984;5.088;2022-07-23T10:13:56;9.57;;;2.60;;
70002;SDS011;57341;51.984;5.088;2022-07-23T10:16:48;7.70;;;2.30;;
70002;SDS011;57341;51.984;5.088;2022-07-23T10:19:16;7.10;;;2.38;;
70002;SDS011;57341;51.984;5.088;2022-07-23T10:21:55;8.90;;;2.65;;
70002;SDS011;57341;51.984;5.088;2022-07-23T10:33:15;7.53;;;2.25;;
70002;SDS011;57341;51.984;5.088;2022-07-23T10:35:48;11.68;;;2.80;;
70002;SDS011;57341;51.984;5.088;2022-07-23T10:39:05;9.35;;;3.03;;
70002;SDS011;57341;51.984;5.088;2022-07-23T10:41:35;4.93;;;1.70;;
70002;SDS011;57341;51.984;5.088;2022-07-23T10:44:06;6.60;;;2.28;;
70002;SDS011;57341;51.984;5.088;2022-07-23T10:46:53;6.97;;;2.90;;
70002;SDS011;57341;51.984;5.088;2022-07-23T10:49:31;7.78;;;2.78;;
70002;SDS011;57341;51.984;5.088;2022-07-23T10:57:18;7.88;;;2.65;;
70002;SDS011;57341;51.984;5.088;2022-07-23T11:02:38;7.60;;;1.58;;
70002;SDS011;57341;51.984;5.088;2022-07-23T11:05:07;7.50;;;2.50;;
70002;SDS011;57341;51.984;5.088;2022-07-23T11:07:36;6.25;;;2.63;;
70002;SDS011;57341;51.984;5.088;2022-07-23T11:10:43;7.22;;;2.65;;
70002;SDS011;57341;51.984;5.088;2022-07-23T11:16:05;6.78;;;2.40;;
70002;SDS011;57341;51.984;5.088;2022-07-23T11:18:53;7.57;;;2.70;;
70002;SDS011;57341;51.984;5.088;2022-07-23T11:31:58;6.10;;;2.47;;
70002;SDS011;57341;51.984;5.088;2022-07-23T11:37:26;5.72;;;2.35;;
70002;SDS011;57341;51.984;5.088;2022-07-23T11:40:03;4.03;;;1.35;;
70002;SDS011;57341;51.984;5.088;2022-07-23T11:42:35;7.43;;;2.38;;
70002;SDS011;57341;51.984;5.088;2022-07-23T11:45:07;4.05;;;1.73;;
70002;SDS011;57341;51.984;5.088;2022-07-23T11:50:04;7.72;;;2.80;;
70002;SDS011;57341;51.984;5.088;2022-07-23T11:52:33;8.65;;;3.25;;
70002;SDS011;57341;51.984;5.088;2022-07-23T11:55:02;9.00;;;2.70;;
70002;SDS011;57341;51.984;5.088;2022-07-23T11:57:32;4.13;;;1.40;;
70002;SDS011;57341;51.984;5.088;2022-07-23T12:00:04;7.50;;;2.75;;
70002;SDS011;57341;51.984;5.088;2022-07-23T12:02:47;7.22;;;2.83;;
70002;SDS011;57341;51.984;5.088;2022-07-23T12:05:17;8.57;;;3.22;;
70002;SDS011;57341;51.984;5.088;2022-07-23T12:07:46;6.50;;;2.75;;
70002;SDS011;57341;51.984;5.088;2022-07-23T12:10:21;9.93;;;3.20;;
70002;SDS011;57341;51.984;5.088;2022-07-23T12:12:56;7.95;;;2.70;;
70002;SDS011;57341;51.984;5.088;2022-07-23T12:15:30;9.02;;;3.25;;
70002;SDS011;57341;51.984;5.088;2022-07-23T12:18:05;7.63;;;3.00;;
70002;SDS011;57341;51.984;5.088;2022-07-23T12:20:36;6.88;;;2.90;;
70002;SDS011;57341;51.984;5.088;2022-07-23T12:23:06;7.72;;;2.95;;
70002;SDS011;57341;51.984;5.088;2022-07-23T12:25:35;8.45;;;3.17;;
70002;SDS011;57341;51.984;5.088;2022-07-23T12:33:12;8.75;;;2.90;;
70002;SDS011;57341;51.984;5.088;2022-07-23T12:35:52;6.00;;;2.25;;
70002;SDS011;57341;51.984;5.088;2022-07-23T12:38:24;7.68;;;2.85;;
70002;SDS011;57341;51.984;5.088;2022-07-23T12:40:56;7.07;;;2.60;;
70002;SDS011;57341;51.984;5.088;2022-07-23T12:43:27;7.72;;;2.95;;
70002;SDS011;57341;51.984;5.088;2022-07-23T12:53:48;6.68;;;2.65;;
70002;SDS011;57341;51.984;5.088;2022-07-23T12:56:27;7.70;;;3.03;;
70002;SDS011;57341;51.984;5.088;2022-07-23T12:59:14;8.13;;;3.03;;
70002;SDS011;57341;51.984;5.088;2022-07-23T13:01:45;7.32;;;2.50;;
70002;SDS011;57341;51.984;5.088;2022-07-23T13:04:25;8.23;;;2.80;;
70002;SDS011;57341;51.984;5.088;2022-07-23T13:06:53;7.32;;;2.47;;
70002;SDS011;57341;51.984;5.088;2022-07-23T13:09:26;9.25;;;3.58;;
70002;SDS011;57341;51.984;5.088;2022-07-23T13:11:58;8.55;;;3.38;;
70002;SDS011;57341;51.984;5.088;2022-07-23T13:14:26;8.10;;;3.13;;
70002;SDS011;57341;51.984;5.088;2022-07-23T13:16:54;8.00;;;2.95;;
70002;SDS011;57341;51.984;5.088;2022-07-23T13:19:25;3.70;;;1.73;;
70002;SDS011;57341;51.984;5.088;2022-07-23T13:24:20;8.65;;;2.88;;
